sensor_id;sensor_type;location;lat;lon;timestamp;P1;durP1;ratioP1;P2;durP2;ratioP2
59504;SDS011;45321;53.200;5.814;2023-12-14T00:00:45;12.35;;;5.95;;
59504;SDS011;45321;53.200;5.814;2023-12-14T00:03:11;9.35;;;5.38;;
59504;SDS011;45321;53.200;5.814;2023-12-14T00:05:36;8.55;;;5.15;;
59504;SDS011;45321;53.200;5.814;2023-12-14T00:08:02;8.90;;;5.20;;
59504;SDS011;45321;53.200;5.814;2023-12-14T00:10:28;9.32;;;4.85;;
59504;SDS011;45321;53.200;5.814;2023-12-14T00:12:54;11.85;;;5.88;;
59504;SDS011;45321;53.200;5.814;2023-12-14T00:15:20;8.32;;;4.85;;
59504;SDS011;45321;53.200;5.814;2023-12-14T00:17:46;9.57;;;5.13;;
59504;SDS011;45321;53.200;5.814;2023-12-14T00:20:14;9.75;;;5.25;;
59504;SDS011;45321;53.200;5.814;2023-12-14T00:22:40;8.93;;;5.50;;
59504;SDS011;45321;53.200;5.814;2023-12-14T00:25:06;13.70;;;5.93;;
59504;SDS011;45321;53.200;5.814;2023-12-14T00:27:32;8.30;;;5.30;;
59504;SDS011;45321;53.200;5.814;2023-12-14T00:29:57;8.90;;;5.38;;
59504;SDS011;45321;53.200;5.814;2023-12-14T00:32:23;8.63;;;4.85;;
59504;SDS011;45321;53.200;5.814;2023-12-14T00:34:49;7.85;;;4.43;;
59504;SDS011;45321;53.200;5.814;2023-12-14T00:37:15;9.52;;;4.53;;
59504;SDS011;45321;53.200;5.814;2023-12-14T00:39:40;8.75;;;4.65;;
59504;SDS011;45321;53.200;5.814;2023-12-14T00:42:06;7.90;;;4.40;;
59504;SDS011;45321;53.200;5.814;2023-12-14T00:44:32;7.70;;;4.18;;
59504;SDS011;45321;53.200;5.814;2023-12-14T00:46:57;6.40;;;3.83;;
59504;SDS011;45321;53.200;5.814;2023-12-14T00:49:25;6.47;;;4.20;;
59504;SDS011;45321;53.200;5.814;2023-12-14T00:51:53;11.63;;;4.60;;
59504;SDS011;45321;53.200;5.814;2023-12-14T00:54:18;8.65;;;4.30;;
59504;SDS011;45321;53.200;5.814;2023-12-14T00:56:44;8.68;;;4.53;;
59504;SDS011;45321;53.200;5.814;2023-12-14T00:59:10;7.68;;;4.50;;
59504;SDS011;45321;53.200;5.814;2023-12-14T01:01:35;10.55;;;4.85;;
59504;SDS011;45321;53.200;5.814;2023-12-14T01:04:01;10.05;;;4.18;;
59504;SDS011;45321;53.200;5.814;2023-12-14T01:06:27;8.02;;;4.50;;
59504;SDS011;45321;53.200;5.814;2023-12-14T01:08:52;7.32;;;4.95;;
59504;SDS011;45321;53.200;5.814;2023-12-14T01:11:18;6.78;;;4.47;;
59504;SDS011;45321;53.200;5.814;2023-12-14T01:13:44;9.55;;;4.68;;
59504;SDS011;45321;53.200;5.814;2023-12-14T01:16:09;7.38;;;3.85;;
59504;SDS011;45321;53.200;5.814;2023-12-14T01:18:35;7.70;;;4.43;;
59504;SDS011;45321;53.200;5.814;2023-12-14T01:21:01;6.50;;;4.07;;
59504;SDS011;45321;53.200;5.814;2023-12-14T01:23:26;7.28;;;4.78;;
59504;SDS011;45321;53.200;5.814;2023-12-14T01:25:52;8.18;;;4.57;;
59504;SDS011;45321;53.200;5.814;2023-12-14T01:28:18;6.55;;;4.70;;
59504;SDS011;45321;53.200;5.814;2023-12-14T01:30:43;5.55;;;4.25;;
59504;SDS011;45321;53.200;5.814;2023-12-14T01:33:09;7.90;;;4.55;;
59504;SDS011;45321;53.200;5.814;2023-12-14T01:35:35;7.13;;;4.78;;
59504;SDS011;45321;53.200;5.814;2023-12-14T01:38:00;5.93;;;3.80;;
59504;SDS011;45321;53.200;5.814;2023-12-14T01:40:26;7.00;;;4.28;;
59504;SDS011;45321;53.200;5.814;2023-12-14T01:42:52;7.28;;;4.35;;
59504;SDS011;45321;53.200;5.814;2023-12-14T01:45:17;10.50;;;4.60;;
59504;SDS011;45321;53.200;5.814;2023-12-14T01:47:43;8.02;;;4.88;;
59504;SDS011;45321;53.200;5.814;2023-12-14T01:50:10;9.05;;;4.40;;
59504;SDS011;45321;53.200;5.814;2023-12-14T01:52:35;8.95;;;5.35;;
59504;SDS011;45321;53.200;5.814;2023-12-14T01:55:01;7.55;;;4.93;;
59504;SDS011;45321;53.200;5.814;2023-12-14T01:57:28;12.43;;;5.00;;
59504;SDS011;45321;53.200;5.814;2023-12-14T01:59:53;6.10;;;4.50;;
59504;SDS011;45321;53.200;5.814;2023-12-14T02:02:19;8.07;;;4.72;;
59504;SDS011;45321;53.200;5.814;2023-12-14T02:04:45;7.43;;;4.85;;
59504;SDS011;45321;53.200;5.814;2023-12-14T02:07:11;7.60;;;4.75;;
59504;SDS011;45321;53.200;5.814;2023-12-14T02:09:37;13.02;;;6.00;;
59504;SDS011;45321;53.200;5.814;2023-12-14T02:12:02;8.15;;;5.30;;
59504;SDS011;45321;53.200;5.814;2023-12-14T02:14:28;8.75;;;5.43;;
59504;SDS011;45321;53.200;5.814;2023-12-14T02:16:54;10.98;;;5.85;;
59504;SDS011;45321;53.200;5.814;2023-12-14T02:19:19;8.63;;;5.65;;
59504;SDS011;45321;53.200;5.814;2023-12-14T02:21:45;9.52;;;5.85;;
59504;SDS011;45321;53.200;5.814;2023-12-14T02:24:11;11.32;;;6.35;;
59504;SDS011;45321;53.200;5.814;2023-12-14T02:26:36;8.75;;;5.95;;
59504;SDS011;45321;53.200;5.814;2023-12-14T02:29:02;10.75;;;6.07;;
59504;SDS011;45321;53.200;5.814;2023-12-14T02:31:28;10.32;;;6.13;;
59504;SDS011;45321;53.200;5.814;2023-12-14T02:33:53;12.88;;;6.05;;
59504;SDS011;45321;53.200;5.814;2023-12-14T02:36:19;10.30;;;5.30;;
59504;SDS011;45321;53.200;5.814;2023-12-14T02:38:45;9.85;;;6.60;;
59504;SDS011;45321;53.200;5.814;2023-12-14T02:41:10;8.55;;;5.65;;
59504;SDS011;45321;53.200;5.814;2023-12-14T02:43:36;12.07;;;6.32;;
59504;SDS011;45321;53.200;5.814;2023-12-14T02:46:03;8.20;;;5.70;;
59504;SDS011;45321;53.200;5.814;2023-12-14T02:48:29;9.52;;;6.72;;
59504;SDS011;45321;53.200;5.814;2023-12-14T02:50:55;7.43;;;5.43;;
59504;SDS011;45321;53.200;5.814;2023-12-14T02:53:21;8.57;;;5.65;;
59504;SDS011;45321;53.200;5.814;2023-12-14T02:55:46;11.68;;;5.60;;
59504;SDS011;45321;53.200;5.814;2023-12-14T02:58:12;10.68;;;6.82;;
59504;SDS011;45321;53.200;5.814;2023-12-14T03:00:38;12.18;;;6.82;;
59504;SDS011;45321;53.200;5.814;2023-12-14T03:03:03;8.55;;;6.55;;
59504;SDS011;45321;53.200;5.814;2023-12-14T03:05:29;10.25;;;6.13;;
59504;SDS011;45321;53.200;5.814;2023-12-14T03:07:55;13.15;;;7.55;;
59504;SDS011;45321;53.200;5.814;2023-12-14T03:10:20;10.32;;;7.05;;
59504;SDS011;45321;53.200;5.814;2023-12-14T03:12:46;12.25;;;6.57;;
59504;SDS011;45321;53.200;5.814;2023-12-14T03:15:12;12.82;;;7.50;;
59504;SDS011;45321;53.200;5.814;2023-12-14T03:17:37;12.02;;;7.05;;
59504;SDS011;45321;53.200;5.814;2023-12-14T03:20:03;12.10;;;7.05;;
59504;SDS011;45321;53.200;5.814;2023-12-14T03:22:31;12.43;;;6.95;;
59504;SDS011;45321;53.200;5.814;2023-12-14T03:24:57;12.45;;;6.28;;
59504;SDS011;45321;53.200;5.814;2023-12-14T03:27:23;15.25;;;7.05;;
59504;SDS011;45321;53.200;5.814;2023-12-14T03:29:49;11.05;;;6.50;;
59504;SDS011;45321;53.200;5.814;2023-12-14T03:32:15;13.15;;;6.85;;
59504;SDS011;45321;53.200;5.814;2023-12-14T03:34:41;13.35;;;7.40;;
59504;SDS011;45321;53.200;5.814;2023-12-14T03:37:06;11.93;;;7.30;;
59504;SDS011;45321;53.200;5.814;2023-12-14T03:39:32;15.60;;;8.25;;
59504;SDS011;45321;53.200;5.814;2023-12-14T03:41:58;14.65;;;7.90;;
59504;SDS011;45321;53.200;5.814;2023-12-14T03:44:23;16.52;;;7.47;;
59504;SDS011;45321;53.200;5.814;2023-12-14T03:46:49;13.30;;;7.38;;
59504;SDS011;45321;53.200;5.814;2023-12-14T03:49:15;13.07;;;7.60;;
59504;SDS011;45321;53.200;5.814;2023-12-14T03:51:41;16.45;;;7.55;;
59504;SDS011;45321;53.200;5.814;2023-12-14T03:54:06;15.90;;;7.80;;
59504;SDS011;45321;53.200;5.814;2023-12-14T03:56:32;11.48;;;6.90;;
59504;SDS011;45321;53.200;5.814;2023-12-14T03:58:58;14.98;;;8.52;;
59504;SDS011;45321;53.200;5.814;2023-12-14T04:01:24;14.55;;;8.40;;
59504;SDS011;45321;53.200;5.814;2023-12-14T04:03:49;12.88;;;8.02;;
59504;SDS011;45321;53.200;5.814;2023-12-14T04:06:15;16.52;;;8.77;;
59504;SDS011;45321;53.200;5.814;2023-12-14T04:08:41;19.15;;;8.40;;
59504;SDS011;45321;53.200;5.814;2023-12-14T04:11:07;13.20;;;7.68;;
59504;SDS011;45321;53.200;5.814;2023-12-14T04:13:33;12.35;;;7.43;;
59504;SDS011;45321;53.200;5.814;2023-12-14T04:15:59;13.40;;;7.88;;
59504;SDS011;45321;53.200;5.814;2023-12-14T04:18:25;15.27;;;8.10;;
59504;SDS011;45321;53.200;5.814;2023-12-14T04:20:51;16.83;;;8.57;;
59504;SDS011;45321;53.200;5.814;2023-12-14T04:23:17;15.00;;;8.02;;
59504;SDS011;45321;53.200;5.814;2023-12-14T04:25:43;16.38;;;8.13;;
59504;SDS011;45321;53.200;5.814;2023-12-14T04:28:09;16.88;;;9.23;;
59504;SDS011;45321;53.200;5.814;2023-12-14T04:30:34;11.45;;;7.47;;
59504;SDS011;45321;53.200;5.814;2023-12-14T04:33:00;12.93;;;7.43;;
59504;SDS011;45321;53.200;5.814;2023-12-14T04:35:26;15.38;;;8.00;;
59504;SDS011;45321;53.200;5.814;2023-12-14T04:37:52;18.08;;;8.27;;
59504;SDS011;45321;53.200;5.814;2023-12-14T04:40:17;14.65;;;7.75;;
59504;SDS011;45321;53.200;5.814;2023-12-14T04:42:44;19.13;;;7.95;;
59504;SDS011;45321;53.200;5.814;2023-12-14T04:45:10;13.05;;;7.82;;
59504;SDS011;45321;53.200;5.814;2023-12-14T04:47:36;16.45;;;7.70;;
59504;SDS011;45321;53.200;5.814;2023-12-14T04:50:02;15.80;;;8.02;;
59504;SDS011;45321;53.200;5.814;2023-12-14T04:52:29;13.88;;;7.80;;
59504;SDS011;45321;53.200;5.814;2023-12-14T04:54:54;13.90;;;7.50;;
59504;SDS011;45321;53.200;5.814;2023-12-14T04:57:20;15.60;;;7.85;;
59504;SDS011;45321;53.200;5.814;2023-12-14T04:59:46;17.02;;;8.50;;
59504;SDS011;45321;53.200;5.814;2023-12-14T05:02:11;11.10;;;7.80;;
59504;SDS011;45321;53.200;5.814;2023-12-14T05:04:37;12.57;;;7.78;;
59504;SDS011;45321;53.200;5.814;2023-12-14T05:07:03;14.77;;;8.40;;
59504;SDS011;45321;53.200;5.814;2023-12-14T05:09:29;17.02;;;8.10;;
59504;SDS011;45321;53.200;5.814;2023-12-14T05:11:54;18.40;;;9.00;;
59504;SDS011;45321;53.200;5.814;2023-12-14T05:14:20;18.00;;;8.43;;
59504;SDS011;45321;53.200;5.814;2023-12-14T05:16:46;13.07;;;7.97;;
59504;SDS011;45321;53.200;5.814;2023-12-14T05:19:11;14.80;;;7.75;;
59504;SDS011;45321;53.200;5.814;2023-12-14T05:21:38;17.23;;;9.23;;
59504;SDS011;45321;53.200;5.814;2023-12-14T05:24:04;19.05;;;9.18;;
59504;SDS011;45321;53.200;5.814;2023-12-14T05:26:30;18.60;;;8.38;;
59504;SDS011;45321;53.200;5.814;2023-12-14T05:28:55;18.05;;;8.18;;
59504;SDS011;45321;53.200;5.814;2023-12-14T05:31:21;16.67;;;8.70;;
59504;SDS011;45321;53.200;5.814;2023-12-14T05:33:47;14.63;;;7.82;;
59504;SDS011;45321;53.200;5.814;2023-12-14T05:36:13;15.40;;;8.38;;
59504;SDS011;45321;53.200;5.814;2023-12-14T05:38:39;14.27;;;8.63;;
59504;SDS011;45321;53.200;5.814;2023-12-14T05:41:05;15.07;;;8.27;;
59504;SDS011;45321;53.200;5.814;2023-12-14T05:43:31;19.17;;;8.95;;
59504;SDS011;45321;53.200;5.814;2023-12-14T05:45:57;16.27;;;8.40;;
59504;SDS011;45321;53.200;5.814;2023-12-14T05:48:23;12.45;;;7.50;;
59504;SDS011;45321;53.200;5.814;2023-12-14T05:50:51;13.77;;;8.38;;
59504;SDS011;45321;53.200;5.814;2023-12-14T05:53:17;14.20;;;7.90;;
59504;SDS011;45321;53.200;5.814;2023-12-14T05:55:43;14.85;;;8.40;;
59504;SDS011;45321;53.200;5.814;2023-12-14T05:58:09;16.30;;;8.65;;
59504;SDS011;45321;53.200;5.814;2023-12-14T06:00:35;15.57;;;7.95;;
59504;SDS011;45321;53.200;5.814;2023-12-14T06:03:01;20.02;;;8.32;;
59504;SDS011;45321;53.200;5.814;2023-12-14T06:05:27;18.00;;;8.05;;
59504;SDS011;45321;53.200;5.814;2023-12-14T06:07:52;14.20;;;8.43;;
59504;SDS011;45321;53.200;5.814;2023-12-14T06:10:18;17.17;;;8.38;;
59504;SDS011;45321;53.200;5.814;2023-12-14T06:12:45;14.68;;;8.27;;
59504;SDS011;45321;53.200;5.814;2023-12-14T06:15:10;17.73;;;8.43;;
59504;SDS011;45321;53.200;5.814;2023-12-14T06:17:36;15.13;;;9.30;;
59504;SDS011;45321;53.200;5.814;2023-12-14T06:20:04;15.60;;;7.85;;
59504;SDS011;45321;53.200;5.814;2023-12-14T06:22:33;16.08;;;9.32;;
59504;SDS011;45321;53.200;5.814;2023-12-14T06:25:01;12.48;;;8.45;;
59504;SDS011;45321;53.200;5.814;2023-12-14T06:27:28;18.08;;;9.13;;
59504;SDS011;45321;53.200;5.814;2023-12-14T06:29:54;16.73;;;8.82;;
59504;SDS011;45321;53.200;5.814;2023-12-14T06:32:20;17.73;;;8.63;;
59504;SDS011;45321;53.200;5.814;2023-12-14T06:34:45;17.15;;;8.93;;
59504;SDS011;45321;53.200;5.814;2023-12-14T06:37:11;15.35;;;8.82;;
59504;SDS011;45321;53.200;5.814;2023-12-14T06:39:37;17.27;;;10.27;;
59504;SDS011;45321;53.200;5.814;2023-12-14T06:42:03;14.50;;;8.35;;
59504;SDS011;45321;53.200;5.814;2023-12-14T06:44:29;14.82;;;8.00;;
59504;SDS011;45321;53.200;5.814;2023-12-14T06:46:55;14.20;;;9.52;;
59504;SDS011;45321;53.200;5.814;2023-12-14T06:49:23;17.67;;;8.15;;
59504;SDS011;45321;53.200;5.814;2023-12-14T06:51:50;15.07;;;8.65;;
59504;SDS011;45321;53.200;5.814;2023-12-14T06:54:15;16.33;;;9.30;;
59504;SDS011;45321;53.200;5.814;2023-12-14T06:56:41;16.73;;;8.85;;
59504;SDS011;45321;53.200;5.814;2023-12-14T06:59:07;13.68;;;7.90;;
59504;SDS011;45321;53.200;5.814;2023-12-14T07:01:32;14.32;;;8.93;;
59504;SDS011;45321;53.200;5.814;2023-12-14T07:03:58;20.90;;;8.93;;
59504;SDS011;45321;53.200;5.814;2023-12-14T07:06:24;17.25;;;8.48;;
59504;SDS011;45321;53.200;5.814;2023-12-14T07:08:50;16.50;;;8.80;;
59504;SDS011;45321;53.200;5.814;2023-12-14T07:11:15;15.52;;;7.60;;
59504;SDS011;45321;53.200;5.814;2023-12-14T07:13:42;12.77;;;7.97;;
59504;SDS011;45321;53.200;5.814;2023-12-14T07:16:08;17.30;;;8.63;;
59504;SDS011;45321;53.200;5.814;2023-12-14T07:18:39;18.35;;;8.40;;
59504;SDS011;45321;53.200;5.814;2023-12-14T07:21:06;11.90;;;7.82;;
59504;SDS011;45321;53.200;5.814;2023-12-14T07:23:33;18.30;;;8.13;;
59504;SDS011;45321;53.200;5.814;2023-12-14T07:26:00;16.17;;;8.48;;
59504;SDS011;45321;53.200;5.814;2023-12-14T07:28:26;16.52;;;11.30;;
59504;SDS011;45321;53.200;5.814;2023-12-14T07:30:52;15.27;;;9.60;;
59504;SDS011;45321;53.200;5.814;2023-12-14T07:33:18;14.35;;;8.77;;
59504;SDS011;45321;53.200;5.814;2023-12-14T07:35:44;13.68;;;8.35;;
59504;SDS011;45321;53.200;5.814;2023-12-14T07:38:10;14.98;;;8.40;;
59504;SDS011;45321;53.200;5.814;2023-12-14T07:40:36;14.90;;;8.38;;
59504;SDS011;45321;53.200;5.814;2023-12-14T07:43:03;15.40;;;8.35;;
59504;SDS011;45321;53.200;5.814;2023-12-14T07:45:30;19.17;;;8.30;;
59504;SDS011;45321;53.200;5.814;2023-12-14T07:47:55;18.60;;;8.23;;
59504;SDS011;45321;53.200;5.814;2023-12-14T07:50:21;16.05;;;8.43;;
59504;SDS011;45321;53.200;5.814;2023-12-14T07:52:50;17.30;;;8.15;;
59504;SDS011;45321;53.200;5.814;2023-12-14T07:55:15;13.38;;;8.27;;
59504;SDS011;45321;53.200;5.814;2023-12-14T07:57:42;10.60;;;7.63;;
59504;SDS011;45321;53.200;5.814;2023-12-14T08:00:08;14.77;;;8.40;;
59504;SDS011;45321;53.200;5.814;2023-12-14T08:02:35;15.93;;;8.45;;
59504;SDS011;45321;53.200;5.814;2023-12-14T08:05:01;19.13;;;8.18;;
59504;SDS011;45321;53.200;5.814;2023-12-14T08:07:26;15.02;;;8.85;;
59504;SDS011;45321;53.200;5.814;2023-12-14T08:09:57;16.38;;;9.23;;
59504;SDS011;45321;53.200;5.814;2023-12-14T08:12:23;18.45;;;8.90;;
59504;SDS011;45321;53.200;5.814;2023-12-14T08:14:49;13.73;;;7.90;;
59504;SDS011;45321;53.200;5.814;2023-12-14T08:17:15;13.27;;;8.55;;
59504;SDS011;45321;53.200;5.814;2023-12-14T08:19:41;16.65;;;8.90;;
59504;SDS011;45321;53.200;5.814;2023-12-14T08:22:07;18.88;;;9.50;;
59504;SDS011;45321;53.200;5.814;2023-12-14T08:24:36;16.52;;;8.70;;
59504;SDS011;45321;53.200;5.814;2023-12-14T08:27:02;18.02;;;10.27;;
59504;SDS011;45321;53.200;5.814;2023-12-14T08:29:28;17.30;;;9.85;;
59504;SDS011;45321;53.200;5.814;2023-12-14T08:31:54;14.60;;;9.35;;
59504;SDS011;45321;53.200;5.814;2023-12-14T08:34:22;17.75;;;9.25;;
59504;SDS011;45321;53.200;5.814;2023-12-14T08:36:49;17.80;;;9.30;;
59504;SDS011;45321;53.200;5.814;2023-12-14T08:39:14;16.60;;;9.25;;
59504;SDS011;45321;53.200;5.814;2023-12-14T08:41:40;15.85;;;9.35;;
59504;SDS011;45321;53.200;5.814;2023-12-14T08:44:06;16.23;;;8.82;;
59504;SDS011;45321;53.200;5.814;2023-12-14T08:46:40;15.43;;;9.80;;
59504;SDS011;45321;53.200;5.814;2023-12-14T08:49:10;17.77;;;9.30;;
59504;SDS011;45321;53.200;5.814;2023-12-14T08:51:38;19.27;;;9.55;;
59504;SDS011;45321;53.200;5.814;2023-12-14T08:54:04;12.93;;;8.32;;
59504;SDS011;45321;53.200;5.814;2023-12-14T08:56:31;20.38;;;10.00;;
59504;SDS011;45321;53.200;5.814;2023-12-14T08:58:56;17.13;;;9.68;;
59504;SDS011;45321;53.200;5.814;2023-12-14T09:01:24;15.60;;;9.10;;
59504;SDS011;45321;53.200;5.814;2023-12-14T09:03:50;16.52;;;9.23;;
59504;SDS011;45321;53.200;5.814;2023-12-14T09:06:16;15.35;;;9.40;;
59504;SDS011;45321;53.200;5.814;2023-12-14T09:08:43;13.10;;;8.80;;
59504;SDS011;45321;53.200;5.814;2023-12-14T09:11:10;15.23;;;9.75;;
59504;SDS011;45321;53.200;5.814;2023-12-14T09:13:36;14.23;;;9.23;;
59504;SDS011;45321;53.200;5.814;2023-12-14T09:16:02;15.60;;;9.05;;
59504;SDS011;45321;53.200;5.814;2023-12-14T09:18:27;19.15;;;11.20;;
59504;SDS011;45321;53.200;5.814;2023-12-14T09:20:53;19.50;;;11.02;;
59504;SDS011;45321;53.200;5.814;2023-12-14T09:23:19;17.10;;;9.05;;
59504;SDS011;45321;53.200;5.814;2023-12-14T09:25:45;14.98;;;9.75;;
59504;SDS011;45321;53.200;5.814;2023-12-14T09:28:11;17.70;;;9.65;;
59504;SDS011;45321;53.200;5.814;2023-12-14T09:30:36;15.32;;;9.20;;
59504;SDS011;45321;53.200;5.814;2023-12-14T09:33:02;18.02;;;10.20;;
59504;SDS011;45321;53.200;5.814;2023-12-14T09:35:28;16.52;;;9.27;;
59504;SDS011;45321;53.200;5.814;2023-12-14T09:37:54;16.92;;;9.43;;
59504;SDS011;45321;53.200;5.814;2023-12-14T09:40:21;13.68;;;9.18;;
59504;SDS011;45321;53.200;5.814;2023-12-14T09:42:48;19.85;;;9.05;;
59504;SDS011;45321;53.200;5.814;2023-12-14T09:45:17;15.88;;;9.02;;
59504;SDS011;45321;53.200;5.814;2023-12-14T09:47:44;18.70;;;9.77;;
59504;SDS011;45321;53.200;5.814;2023-12-14T09:50:11;21.55;;;10.00;;
59504;SDS011;45321;53.200;5.814;2023-12-14T09:52:39;19.85;;;9.65;;
59504;SDS011;45321;53.200;5.814;2023-12-14T09:55:10;14.30;;;8.93;;
59504;SDS011;45321;53.200;5.814;2023-12-14T09:57:36;14.15;;;8.82;;
59504;SDS011;45321;53.200;5.814;2023-12-14T10:00:02;19.38;;;9.02;;
59504;SDS011;45321;53.200;5.814;2023-12-14T10:02:30;15.77;;;8.80;;
59504;SDS011;45321;53.200;5.814;2023-12-14T10:04:55;16.02;;;9.40;;
59504;SDS011;45321;53.200;5.814;2023-12-14T10:07:21;13.95;;;8.82;;
59504;SDS011;45321;53.200;5.814;2023-12-14T10:09:47;14.50;;;8.88;;
59504;SDS011;45321;53.200;5.814;2023-12-14T10:12:13;17.02;;;8.68;;
59504;SDS011;45321;53.200;5.814;2023-12-14T10:14:38;12.05;;;7.45;;
59504;SDS011;45321;53.200;5.814;2023-12-14T10:17:25;12.35;;;8.10;;
59504;SDS011;45321;53.200;5.814;2023-12-14T10:19:57;11.63;;;7.40;;
59504;SDS011;45321;53.200;5.814;2023-12-14T10:22:22;13.95;;;8.70;;
59504;SDS011;45321;53.200;5.814;2023-12-14T10:24:53;13.32;;;8.23;;
59504;SDS011;45321;53.200;5.814;2023-12-14T10:27:19;17.02;;;9.70;;
59504;SDS011;45321;53.200;5.814;2023-12-14T10:29:45;14.32;;;8.20;;
59504;SDS011;45321;53.200;5.814;2023-12-14T10:32:11;11.57;;;7.88;;
59504;SDS011;45321;53.200;5.814;2023-12-14T10:34:37;10.88;;;7.95;;
59504;SDS011;45321;53.200;5.814;2023-12-14T10:37:09;10.95;;;7.63;;
59504;SDS011;45321;53.200;5.814;2023-12-14T10:39:37;10.73;;;7.53;;
59504;SDS011;45321;53.200;5.814;2023-12-14T10:42:06;17.70;;;8.85;;
59504;SDS011;45321;53.200;5.814;2023-12-14T10:44:35;11.27;;;7.70;;
59504;SDS011;45321;53.200;5.814;2023-12-14T10:47:03;14.65;;;8.43;;
59504;SDS011;45321;53.200;5.814;2023-12-14T10:49:32;14.65;;;9.45;;
59504;SDS011;45321;53.200;5.814;2023-12-14T10:52:00;12.43;;;7.50;;
59504;SDS011;45321;53.200;5.814;2023-12-14T10:54:28;13.30;;;7.68;;
59504;SDS011;45321;53.200;5.814;2023-12-14T10:56:57;13.13;;;8.30;;
59504;SDS011;45321;53.200;5.814;2023-12-14T10:59:23;13.75;;;7.95;;
59504;SDS011;45321;53.200;5.814;2023-12-14T11:01:54;16.52;;;8.48;;
59504;SDS011;45321;53.200;5.814;2023-12-14T11:04:23;15.77;;;8.68;;
59504;SDS011;45321;53.200;5.814;2023-12-14T11:06:53;11.52;;;8.35;;
59504;SDS011;45321;53.200;5.814;2023-12-14T11:09:21;13.48;;;8.88;;
59504;SDS011;45321;53.200;5.814;2023-12-14T11:11:55;15.60;;;8.40;;
59504;SDS011;45321;53.200;5.814;2023-12-14T11:14:22;17.67;;;9.18;;
59504;SDS011;45321;53.200;5.814;2023-12-14T11:16:50;17.48;;;9.00;;
59504;SDS011;45321;53.200;5.814;2023-12-14T11:21:48;13.60;;;8.30;;
59504;SDS011;45321;53.200;5.814;2023-12-14T11:24:37;14.90;;;8.68;;
59504;SDS011;45321;53.200;5.814;2023-12-14T11:27:07;11.30;;;8.55;;
59504;SDS011;45321;53.200;5.814;2023-12-14T11:29:33;10.90;;;7.85;;
59504;SDS011;45321;53.200;5.814;2023-12-14T11:32:02;13.23;;;8.18;;
59504;SDS011;45321;53.200;5.814;2023-12-14T11:34:28;16.60;;;9.52;;
59504;SDS011;45321;53.200;5.814;2023-12-14T11:36:54;29.83;;;15.13;;
59504;SDS011;45321;53.200;5.814;2023-12-14T11:39:20;15.38;;;9.82;;
59504;SDS011;45321;53.200;5.814;2023-12-14T11:41:59;13.45;;;8.25;;
59504;SDS011;45321;53.200;5.814;2023-12-14T11:44:28;13.68;;;9.20;;
59504;SDS011;45321;53.200;5.814;2023-12-14T11:46:55;16.65;;;9.30;;
59504;SDS011;45321;53.200;5.814;2023-12-14T11:49:23;11.95;;;9.30;;
59504;SDS011;45321;53.200;5.814;2023-12-14T11:51:52;17.00;;;10.10;;
59504;SDS011;45321;53.200;5.814;2023-12-14T11:54:18;12.10;;;9.02;;
59504;SDS011;45321;53.200;5.814;2023-12-14T11:56:48;12.65;;;8.70;;
59504;SDS011;45321;53.200;5.814;2023-12-14T11:59:15;15.82;;;9.63;;
59504;SDS011;45321;53.200;5.814;2023-12-14T12:01:58;14.35;;;9.27;;
59504;SDS011;45321;53.200;5.814;2023-12-14T12:04:26;14.93;;;9.32;;
59504;SDS011;45321;53.200;5.814;2023-12-14T12:07:14;14.88;;;9.75;;
59504;SDS011;45321;53.200;5.814;2023-12-14T12:09:42;12.82;;;9.23;;
59504;SDS011;45321;53.200;5.814;2023-12-14T12:12:09;17.90;;;10.65;;
59504;SDS011;45321;53.200;5.814;2023-12-14T12:14:36;13.10;;;8.88;;
59504;SDS011;45321;53.200;5.814;2023-12-14T12:17:03;13.10;;;8.88;;
59504;SDS011;45321;53.200;5.814;2023-12-14T12:19:31;13.90;;;8.85;;
59504;SDS011;45321;53.200;5.814;2023-12-14T12:21:57;13.57;;;8.10;;
59504;SDS011;45321;53.200;5.814;2023-12-14T12:24:23;13.38;;;8.23;;
59504;SDS011;45321;53.200;5.814;2023-12-14T12:26:49;11.27;;;7.15;;
59504;SDS011;45321;53.200;5.814;2023-12-14T12:29:15;16.08;;;7.63;;
59504;SDS011;45321;53.200;5.814;2023-12-14T12:31:41;12.98;;;8.20;;
59504;SDS011;45321;53.200;5.814;2023-12-14T12:34:08;13.52;;;8.70;;
59504;SDS011;45321;53.200;5.814;2023-12-14T12:36:34;13.95;;;7.22;;
59504;SDS011;45321;53.200;5.814;2023-12-14T12:39:00;14.82;;;8.30;;
59504;SDS011;45321;53.200;5.814;2023-12-14T12:41:25;11.63;;;7.50;;
59504;SDS011;45321;53.200;5.814;2023-12-14T12:43:51;13.60;;;8.15;;
59504;SDS011;45321;53.200;5.814;2023-12-14T12:46:17;15.75;;;7.78;;
59504;SDS011;45321;53.200;5.814;2023-12-14T12:48:43;12.80;;;7.72;;
59504;SDS011;45321;53.200;5.814;2023-12-14T12:51:09;13.23;;;7.35;;
59504;SDS011;45321;53.200;5.814;2023-12-14T12:53:37;11.13;;;7.70;;
59504;SDS011;45321;53.200;5.814;2023-12-14T12:56:04;10.85;;;7.68;;
59504;SDS011;45321;53.200;5.814;2023-12-14T12:58:30;14.05;;;7.78;;
59504;SDS011;45321;53.200;5.814;2023-12-14T13:00:56;16.23;;;7.65;;
59504;SDS011;45321;53.200;5.814;2023-12-14T13:03:22;12.95;;;7.45;;
59504;SDS011;45321;53.200;5.814;2023-12-14T13:05:48;13.95;;;7.78;;
59504;SDS011;45321;53.200;5.814;2023-12-14T13:08:14;14.15;;;7.72;;
59504;SDS011;45321;53.200;5.814;2023-12-14T13:10:40;11.85;;;7.70;;
59504;SDS011;45321;53.200;5.814;2023-12-14T13:13:05;9.95;;;7.47;;
59504;SDS011;45321;53.200;5.814;2023-12-14T13:15:33;11.65;;;7.35;;
59504;SDS011;45321;53.200;5.814;2023-12-14T13:18:00;10.43;;;7.57;;
59504;SDS011;45321;53.200;5.814;2023-12-14T13:20:26;9.95;;;7.88;;
59504;SDS011;45321;53.200;5.814;2023-12-14T13:22:51;12.27;;;7.32;;
59504;SDS011;45321;53.200;5.814;2023-12-14T13:25:17;13.63;;;7.70;;
59504;SDS011;45321;53.200;5.814;2023-12-14T13:27:44;12.00;;;7.72;;
59504;SDS011;45321;53.200;5.814;2023-12-14T13:30:10;12.32;;;7.60;;
59504;SDS011;45321;53.200;5.814;2023-12-14T13:32:37;10.90;;;7.35;;
59504;SDS011;45321;53.200;5.814;2023-12-14T13:35:03;13.73;;;8.32;;
59504;SDS011;45321;53.200;5.814;2023-12-14T13:37:29;11.13;;;7.78;;
59504;SDS011;45321;53.200;5.814;2023-12-14T13:39:55;10.80;;;8.15;;
59504;SDS011;45321;53.200;5.814;2023-12-14T13:42:20;10.60;;;7.80;;
59504;SDS011;45321;53.200;5.814;2023-12-14T13:44:46;13.00;;;7.63;;
59504;SDS011;45321;53.200;5.814;2023-12-14T13:47:12;10.75;;;8.13;;
59504;SDS011;45321;53.200;5.814;2023-12-14T13:49:38;13.38;;;7.80;;
59504;SDS011;45321;53.200;5.814;2023-12-14T13:52:03;10.75;;;7.40;;
59504;SDS011;45321;53.200;5.814;2023-12-14T13:54:29;14.15;;;9.00;;
59504;SDS011;45321;53.200;5.814;2023-12-14T13:56:55;11.20;;;8.70;;
59504;SDS011;45321;53.200;5.814;2023-12-14T13:59:21;11.00;;;8.10;;
59504;SDS011;45321;53.200;5.814;2023-12-14T14:01:46;12.75;;;7.85;;
59504;SDS011;45321;53.200;5.814;2023-12-14T14:04:16;12.55;;;8.70;;
59504;SDS011;45321;53.200;5.814;2023-12-14T14:06:42;11.10;;;8.60;;
59504;SDS011;45321;53.200;5.814;2023-12-14T14:09:08;10.80;;;8.32;;
59504;SDS011;45321;53.200;5.814;2023-12-14T14:11:35;13.20;;;9.18;;
59504;SDS011;45321;53.200;5.814;2023-12-14T14:14:01;13.63;;;8.90;;
59504;SDS011;45321;53.200;5.814;2023-12-14T14:16:27;14.52;;;9.85;;
59504;SDS011;45321;53.200;5.814;2023-12-14T14:18:53;13.80;;;9.10;;
59504;SDS011;45321;53.200;5.814;2023-12-14T14:21:19;15.40;;;9.68;;
59504;SDS011;45321;53.200;5.814;2023-12-14T14:23:45;14.80;;;8.65;;
59504;SDS011;45321;53.200;5.814;2023-12-14T14:26:10;13.45;;;9.35;;
59504;SDS011;45321;53.200;5.814;2023-12-14T14:28:36;14.15;;;9.75;;
59504;SDS011;45321;53.200;5.814;2023-12-14T14:31:03;11.02;;;8.88;;
59504;SDS011;45321;53.200;5.814;2023-12-14T14:33:29;15.57;;;9.48;;